createdAt,value
2022-11-28T15:32:44.853Z,30.50
2022-11-28T15:33:44.769Z,44.00
2022-11-28T15:34:44.952Z,13.90
2022-11-28T15:35:44.668Z,14.10
2022-11-28T15:36:44.613Z,16.70
2022-11-28T15:37:44.568Z,16.10
2022-11-28T15:38:44.514Z,9.60
2022-11-28T15:39:44.471Z,18.00
2022-11-28T15:40:44.411Z,15.40
2022-11-28T15:41:44.363Z,7.70
2022-11-28T15:42:44.319Z,7.10
2022-11-28T15:43:44.273Z,29.60
2022-11-28T15:44:44.515Z,135.00
2022-11-28T15:45:44.176Z,40.70
2022-11-28T15:46:44.207Z,14.80
2022-11-28T15:47:44.082Z,76.40
2022-11-28T15:48:44.050Z,10.20
2022-11-28T15:49:43.986Z,9.50
2022-11-28T15:50:43.933Z,9.50
2022-11-28T15:51:43.893Z,10.90
2022-11-28T15:52:43.839Z,15.60
2022-11-28T15:53:43.793Z,11.40
2022-11-28T15:54:44.087Z,65.50
2022-11-28T15:55:43.710Z,19.90
2022-11-28T15:56:43.673Z,8.70
2022-11-28T15:57:43.619Z,23.50
2022-11-28T15:58:43.567Z,13.60
2022-11-28T15:59:43.530Z,10.30
2022-11-28T16:00:43.495Z,9.10
2022-11-28T16:01:43.478Z,10.60
2022-11-28T16:02:43.375Z,17.20
2022-11-28T16:03:43.334Z,16.50
2022-11-28T16:04:43.660Z,11.70
2022-11-28T16:05:43.240Z,24.00
2022-11-28T16:06:43.716Z,18.70
2022-11-28T16:07:43.231Z,11.90
2022-11-28T16:08:43.111Z,16.40
2022-11-28T16:10:43.083Z,13.20
2022-11-28T16:11:42.966Z,10.50
2022-11-28T16:12:42.927Z,15.20
2022-11-28T16:13:42.888Z,9.80
2022-11-28T16:14:43.146Z,9.80
2022-11-28T16:15:47.051Z,12.50
2022-11-28T16:16:42.807Z,10.30
2022-11-28T16:17:42.685Z,10.40
2022-11-28T16:18:42.644Z,10.10
2022-11-28T16:19:42.591Z,10.70
2022-11-28T16:20:42.573Z,10.50
2022-11-28T16:21:42.501Z,10.60
2022-11-28T16:22:42.456Z,13.00
2022-11-28T16:23:42.406Z,10.80
2022-11-28T16:24:42.413Z,13.20
2022-11-28T16:25:42.329Z,10.60
2022-11-28T16:26:42.277Z,10.60
2022-11-28T16:28:42.184Z,13.50
2022-11-28T16:29:42.292Z,10.70
2022-11-28T16:31:42.077Z,12.10
2022-11-28T16:32:41.997Z,12.10
2022-11-28T16:33:41.959Z,11.90
2022-11-28T16:34:42.186Z,10.20
2022-11-28T16:35:41.859Z,13.40
2022-11-28T16:36:41.841Z,11.70
2022-11-28T16:37:41.770Z,12.90
2022-11-28T16:38:41.731Z,12.40
2022-11-28T16:39:41.726Z,13.40
2022-11-28T16:40:41.634Z,11.90
2022-11-28T16:41:41.586Z,13.90
2022-11-28T16:42:41.550Z,14.30
2022-11-28T16:43:41.500Z,16.90
2022-11-28T16:44:41.449Z,30.00
2022-11-28T16:45:41.471Z,19.20
2022-11-28T16:46:41.360Z,25.60
2022-11-28T16:47:41.338Z,25.00
2022-11-28T16:49:41.344Z,28.50
2022-11-28T16:50:41.180Z,25.60
2022-11-28T16:51:41.136Z,24.50
2022-11-28T16:52:41.103Z,19.10
2022-11-28T16:53:41.042Z,21.80
2022-11-28T16:54:41.326Z,16.10
2022-11-28T16:55:40.970Z,20.00
2022-11-28T16:56:40.904Z,14.30
2022-11-28T16:57:40.864Z,14.60
2022-11-28T16:58:41.137Z,13.00
2022-11-28T16:59:40.866Z,13.20
2022-11-28T17:00:40.825Z,11.00
2022-11-28T17:01:40.779Z,13.40
2022-11-28T17:02:40.633Z,13.10
2022-11-28T17:03:40.585Z,11.60
2022-11-28T17:04:40.558Z,13.30
2022-11-28T17:05:40.497Z,12.00
2022-11-28T17:06:40.474Z,12.80
2022-11-28T17:07:40.450Z,13.40
2022-11-28T17:08:40.383Z,12.90
2022-11-28T17:09:40.347Z,14.60
2022-11-28T17:10:40.288Z,12.50
2022-11-28T17:11:40.237Z,14.30
2022-11-28T17:12:40.173Z,13.00
2022-11-28T17:13:40.159Z,13.10
2022-11-28T17:14:40.083Z,12.80
2022-11-28T17:15:40.036Z,14.20
2022-11-28T17:16:40.057Z,15.00
2022-11-28T17:17:39.955Z,14.70
2022-11-28T17:18:39.900Z,13.40
2022-11-28T17:19:39.858Z,13.30
2022-11-28T17:20:39.829Z,13.80
2022-11-28T17:21:39.771Z,14.00
2022-11-28T17:22:41.312Z,13.20
2022-11-28T17:23:39.695Z,13.00
2022-11-28T17:24:39.664Z,14.00
2022-11-28T17:25:39.612Z,14.10
2022-11-28T17:26:39.558Z,15.20
2022-11-28T17:27:39.519Z,15.10
2022-11-28T17:28:39.450Z,12.80
2022-11-28T17:29:39.403Z,15.90
2022-11-28T17:30:39.375Z,14.10
2022-11-28T17:31:39.366Z,14.50
2022-11-28T17:32:39.262Z,13.20
2022-11-28T17:33:44.314Z,14.00
2022-11-28T17:34:39.176Z,14.80
2022-11-28T17:35:39.130Z,15.50
2022-11-28T17:36:39.099Z,15.20
2022-11-28T17:37:39.047Z,16.20
2022-11-28T17:38:39.011Z,15.50
2022-11-28T17:39:38.977Z,14.00
2022-11-28T17:40:38.943Z,13.50
2022-11-28T17:41:38.859Z,16.70
2022-11-28T17:42:38.843Z,17.70
2022-11-28T17:43:39.391Z,16.00
2022-11-28T17:44:38.751Z,18.30
2022-11-28T17:45:38.717Z,15.10
2022-11-28T17:46:38.646Z,17.10
2022-11-28T17:47:38.919Z,16.90
2022-11-28T17:48:38.551Z,14.90
2022-11-28T17:49:43.135Z,17.20
2022-11-28T17:50:38.456Z,16.40
2022-11-28T17:51:38.425Z,18.80
2022-11-28T17:52:38.370Z,20.50
2022-11-28T17:53:38.316Z,19.90
2022-11-28T17:54:38.293Z,19.20
2022-11-28T17:55:38.228Z,19.90
2022-11-28T17:56:38.193Z,17.70
2022-11-28T17:57:38.136Z,16.80
2022-11-28T17:58:38.102Z,16.00
2022-11-28T17:59:38.039Z,19.60
2022-11-28T18:00:38.055Z,17.70
2022-11-28T18:01:38.303Z,18.80
2022-11-28T18:02:38.024Z,18.50
2022-11-28T18:03:37.858Z,20.60
2022-11-28T18:04:37.813Z,17.50
2022-11-28T18:05:37.784Z,18.30
2022-11-28T18:06:38.048Z,21.10
2022-11-28T18:07:37.790Z,21.50
2022-11-28T18:08:37.646Z,21.00
2022-11-28T18:09:37.603Z,21.00
2022-11-28T18:10:37.554Z,18.70
2022-11-28T18:11:37.516Z,21.30
2022-11-28T18:12:37.477Z,19.60
2022-11-28T18:13:37.403Z,23.90
2022-11-28T18:14:39.844Z,21.40
2022-11-28T18:15:37.642Z,20.00
2022-11-28T18:16:37.325Z,20.30
2022-11-28T18:17:37.561Z,18.90
2022-11-28T18:18:37.193Z,18.80
2022-11-28T18:19:37.133Z,21.70
2022-11-28T18:20:37.085Z,19.80
2022-11-28T18:21:37.058Z,20.70
2022-11-28T18:22:36.996Z,20.80
2022-11-28T18:23:36.982Z,22.10
2022-11-28T18:24:36.930Z,21.20
2022-11-28T18:25:36.883Z,22.50
2022-11-28T18:26:36.819Z,21.70
2022-11-28T18:27:36.786Z,20.00
2022-11-28T18:28:36.744Z,19.70
2022-11-28T18:29:36.703Z,18.90
2022-11-28T18:30:36.648Z,21.50
2022-11-28T18:31:36.657Z,20.80
2022-11-28T18:32:36.540Z,20.40
2022-11-28T18:33:36.512Z,20.40
2022-11-28T18:34:36.450Z,21.50
2022-11-28T18:35:36.406Z,20.00
2022-11-28T18:36:36.359Z,21.50
2022-11-28T18:37:36.332Z,19.20
2022-11-28T18:38:36.267Z,20.30
2022-11-28T18:39:36.222Z,20.60
2022-11-28T18:40:36.200Z,18.00
2022-11-28T18:41:36.158Z,19.60
2022-11-28T18:42:36.116Z,19.60
2022-11-28T18:43:36.056Z,18.70
2022-11-28T18:45:36.317Z,20.10
2022-11-28T18:46:35.925Z,21.40
2022-11-28T18:47:35.876Z,19.40
2022-11-28T18:48:35.813Z,22.00
2022-11-28T18:49:35.792Z,22.70
2022-11-28T18:50:35.724Z,21.00
2022-11-28T18:51:35.682Z,19.60
2022-11-28T18:52:35.651Z,23.00
2022-11-28T18:53:35.601Z,21.10
2022-11-28T18:54:35.570Z,20.70
2022-11-28T18:55:35.494Z,18.10
2022-11-28T18:56:35.452Z,19.60
2022-11-28T18:57:35.423Z,21.00
2022-11-28T18:58:35.694Z,19.60
2022-11-28T18:59:35.335Z,21.40
2022-11-28T19:00:35.276Z,19.20
2022-11-28T19:01:35.296Z,20.40
2022-11-28T19:02:35.302Z,20.80
2022-11-28T19:03:35.149Z,20.00
2022-11-28T19:04:35.119Z,19.50
2022-11-28T19:05:39.085Z,17.40
2022-11-28T19:06:35.030Z,21.90
2022-11-28T19:07:35.063Z,22.60
2022-11-28T19:08:35.005Z,20.60
2022-11-28T19:09:34.861Z,19.30
2022-11-28T19:10:34.852Z,20.90
2022-11-28T19:11:34.768Z,18.20
2022-11-28T19:12:34.747Z,18.00
2022-11-28T19:13:34.701Z,22.10
2022-11-28T19:14:34.960Z,20.50
2022-11-28T19:15:34.614Z,20.50
2022-11-28T19:16:34.604Z,19.40
2022-11-28T19:17:34.521Z,20.20
2022-11-28T19:18:34.454Z,18.20
2022-11-28T19:19:34.421Z,19.50
2022-11-28T19:20:34.382Z,22.30
2022-11-28T19:21:34.331Z,22.60
2022-11-28T19:22:34.270Z,20.90
2022-11-28T19:23:34.242Z,22.50
2022-11-28T19:24:34.294Z,21.90
2022-11-28T19:26:34.105Z,23.70
2022-11-28T19:27:34.043Z,22.00
2022-11-28T19:28:34.004Z,19.80
2022-11-28T19:29:33.977Z,23.90
2022-11-28T19:30:33.930Z,21.90
2022-11-28T19:31:33.910Z,25.00
2022-11-28T19:32:33.832Z,24.50
2022-11-28T19:33:33.802Z,21.30
2022-11-28T19:34:33.764Z,21.00
2022-11-28T19:35:33.703Z,20.50
2022-11-28T19:36:33.659Z,22.60
2022-11-28T19:37:33.618Z,21.90
2022-11-28T19:38:33.545Z,23.10
2022-11-28T19:39:33.502Z,21.60
2022-11-28T19:40:33.457Z,21.50
2022-11-28T19:41:33.558Z,21.60
2022-11-28T19:42:33.363Z,22.40
2022-11-28T19:43:33.319Z,22.50
2022-11-28T19:44:33.288Z,23.30
2022-11-28T19:45:33.304Z,24.20
2022-11-28T19:46:35.642Z,22.50
2022-11-28T19:47:33.157Z,20.70
2022-11-28T19:48:33.109Z,22.70
2022-11-28T19:49:33.071Z,22.70
2022-11-28T19:50:33.005Z,22.90
2022-11-28T19:51:32.983Z,23.80
2022-11-28T19:52:32.913Z,23.30
2022-11-28T19:53:32.873Z,21.70
2022-11-28T19:54:33.192Z,20.20
2022-11-28T19:55:32.805Z,22.60
2022-11-28T19:56:32.763Z,22.10
2022-11-28T19:57:32.697Z,21.00
2022-11-28T19:58:32.659Z,23.60
2022-11-28T19:59:32.596Z,20.60
2022-11-28T20:00:32.572Z,25.50
2022-11-28T20:01:32.545Z,22.40
2022-11-28T20:02:32.848Z,24.20
2022-11-28T20:03:32.421Z,24.30
2022-11-28T20:04:32.368Z,22.10
2022-11-28T20:05:32.649Z,20.20
2022-11-28T20:06:32.283Z,22.80
2022-11-28T20:07:32.278Z,22.60
2022-11-28T20:08:32.208Z,24.70
2022-11-28T20:09:32.165Z,24.60
2022-11-28T20:10:32.106Z,25.90
2022-11-28T20:11:32.075Z,28.30
2022-11-28T20:12:32.061Z,22.40
2022-11-28T20:13:31.966Z,27.30
2022-11-28T20:14:31.936Z,22.50
2022-11-28T20:15:31.887Z,26.50
2022-11-28T20:16:31.938Z,26.80
2022-11-28T20:17:31.800Z,22.70
2022-11-28T20:18:31.757Z,28.50
2022-11-28T20:19:31.717Z,28.00
2022-11-28T20:20:31.645Z,27.60
2022-11-28T20:21:31.620Z,25.40
2022-11-28T20:22:31.575Z,27.00
2022-11-28T20:23:31.837Z,25.60
2022-11-28T20:24:31.464Z,25.40
2022-11-28T20:25:31.418Z,26.80
2022-11-28T20:26:31.491Z,25.10
2022-11-28T20:27:31.326Z,24.60
2022-11-28T20:28:31.281Z,28.10
2022-11-28T20:29:31.252Z,28.40
2022-11-28T20:30:31.192Z,27.60
2022-11-28T20:31:31.212Z,27.60
2022-11-28T20:32:31.101Z,26.10
2022-11-28T20:33:31.056Z,26.80
2022-11-28T20:34:31.034Z,27.60
2022-11-28T20:35:30.996Z,31.20
2022-11-28T20:36:30.938Z,25.70
2022-11-28T20:37:31.209Z,28.70
2022-11-28T20:38:30.850Z,29.10
2022-11-28T20:39:30.815Z,27.20
2022-11-28T20:40:30.770Z,27.60
2022-11-28T20:41:30.719Z,30.20
2022-11-28T20:42:33.317Z,28.70
2022-11-28T20:43:30.605Z,27.70
2022-11-28T20:44:30.566Z,26.40
2022-11-28T20:45:30.551Z,28.20
2022-11-28T20:46:30.488Z,29.70
2022-11-28T20:47:30.426Z,28.70
2022-11-28T20:48:30.410Z,28.10
2022-11-28T20:49:30.357Z,30.50
2022-11-28T20:50:30.306Z,30.20
2022-11-28T20:51:30.241Z,27.50
2022-11-28T20:52:30.217Z,31.80
2022-11-28T20:53:30.175Z,29.20
2022-11-28T20:54:30.109Z,31.50
2022-11-28T20:55:30.079Z,26.30
2022-11-28T20:56:30.038Z,29.30
2022-11-28T20:57:29.992Z,30.80
2022-11-28T20:58:29.960Z,31.10
2022-11-28T20:59:29.910Z,32.10
2022-11-28T21:00:29.855Z,33.60
2022-11-28T21:01:29.876Z,33.10
2022-11-28T21:02:29.866Z,32.00
2022-11-28T21:03:29.797Z,31.30
2022-11-28T21:04:29.676Z,32.10
2022-11-28T21:05:29.633Z,32.40
2022-11-28T21:06:29.568Z,31.20
2022-11-28T21:07:29.595Z,29.30
2022-11-28T21:08:29.478Z,28.40
2022-11-28T21:09:29.446Z,31.80
2022-11-28T21:10:29.384Z,32.30
2022-11-28T21:11:55.671Z,31.60
2022-11-28T21:12:29.310Z,32.50
2022-11-28T21:13:29.254Z,32.20
2022-11-28T21:14:29.467Z,31.60
2022-11-28T21:15:29.482Z,27.90
2022-11-28T21:17:29.095Z,30.80
2022-11-28T21:18:29.019Z,29.60
2022-11-28T21:19:28.996Z,32.10
2022-11-28T21:20:28.951Z,30.30
2022-11-28T21:21:28.887Z,31.10
2022-11-28T21:22:28.863Z,29.30
2022-11-28T21:23:28.815Z,32.40
2022-11-28T21:24:28.747Z,30.90
2022-11-28T21:25:28.727Z,32.10
2022-11-28T21:26:30.431Z,33.70
2022-11-28T21:27:28.613Z,32.70
2022-11-28T21:28:28.569Z,29.70
2022-11-28T21:29:28.542Z,31.40
2022-11-28T21:30:28.501Z,31.90
2022-11-28T21:31:28.457Z,34.20
2022-11-28T21:32:28.413Z,30.40
2022-11-28T21:33:28.351Z,28.40
2022-11-28T21:34:28.620Z,30.00
2022-11-28T21:35:28.256Z,30.40
2022-11-28T21:36:28.222Z,30.20
2022-11-28T21:37:28.180Z,30.60
2022-11-28T21:38:28.135Z,29.10
2022-11-28T21:39:28.091Z,32.90
2022-11-28T21:41:27.997Z,34.80
2022-11-28T21:42:27.967Z,32.30
2022-11-28T21:43:27.887Z,33.50
2022-11-28T21:44:27.867Z,31.00
2022-11-28T21:45:27.875Z,35.00
2022-11-28T21:46:27.754Z,34.70
2022-11-28T21:47:27.738Z,33.10
2022-11-28T21:48:27.991Z,33.80
2022-11-28T21:49:27.651Z,33.90
2022-11-28T21:50:27.600Z,37.70
2022-11-28T21:51:27.526Z,37.90
2022-11-28T21:52:27.495Z,40.00
2022-11-28T21:53:27.435Z,35.60
2022-11-28T21:54:27.396Z,42.90
2022-11-28T21:55:27.343Z,41.80
2022-11-28T21:56:27.324Z,39.40
2022-11-28T21:57:27.277Z,40.60
2022-11-28T21:58:27.237Z,46.90
2022-11-28T21:59:27.166Z,39.60
2022-11-28T22:00:52.259Z,42.00
2022-11-28T22:01:27.142Z,34.20
2022-11-28T22:02:30.800Z,41.60
2022-11-28T22:03:27.086Z,37.70
2022-11-28T22:04:26.958Z,39.60
2022-11-28T22:05:26.924Z,41.50
2022-11-28T22:06:26.854Z,41.80
2022-11-28T22:07:26.831Z,43.70
2022-11-28T22:08:26.758Z,40.00
2022-11-28T22:09:26.722Z,45.50
2022-11-28T22:10:26.694Z,43.70
2022-11-28T22:11:26.625Z,43.10
2022-11-28T22:12:26.582Z,40.80
2022-11-28T22:13:26.557Z,41.20
2022-11-28T22:14:26.820Z,43.40
2022-11-28T22:15:26.441Z,44.70
2022-11-28T22:16:26.497Z,42.40
2022-11-28T22:17:26.376Z,46.00
2022-11-28T22:18:26.633Z,45.90
2022-11-28T22:19:26.287Z,39.90
2022-11-28T22:20:26.218Z,43.30
2022-11-28T22:21:51.157Z,46.40
2022-11-28T22:22:26.149Z,46.90
2022-11-28T22:23:26.349Z,46.70
2022-11-28T22:24:26.059Z,45.00
2022-11-28T22:25:26.429Z,43.50
2022-11-28T22:26:26.004Z,49.80
2022-11-28T22:27:26.481Z,50.60
2022-11-28T22:28:25.855Z,48.80
2022-11-28T22:29:25.875Z,48.20
2022-11-28T22:30:25.788Z,49.10
2022-11-28T22:31:26.120Z,48.60
2022-11-28T22:32:25.686Z,46.80
2022-11-28T22:33:25.679Z,45.90
2022-11-28T22:34:25.595Z,48.60
2022-11-28T22:35:25.540Z,51.20
2022-11-28T22:36:25.499Z,50.60
2022-11-28T22:37:25.454Z,50.80
2022-11-28T22:38:25.409Z,53.90
2022-11-28T22:39:25.379Z,49.80
2022-11-28T22:40:25.311Z,51.10
2022-11-28T22:41:28.924Z,46.10
2022-11-28T22:42:25.237Z,45.90
2022-11-28T22:44:25.132Z,45.80
2022-11-28T22:45:25.120Z,49.10
2022-11-28T22:46:25.041Z,49.80
2022-11-28T22:47:25.000Z,47.80
2022-11-28T22:48:24.956Z,51.40
2022-11-28T22:49:25.197Z,45.60
2022-11-28T22:50:24.871Z,44.50
2022-11-28T22:51:25.462Z,47.70
2022-11-28T22:53:25.478Z,53.00
2022-11-28T22:54:24.688Z,48.80
2022-11-28T22:55:25.048Z,49.00
2022-11-28T22:56:24.598Z,47.20
2022-11-28T22:57:24.590Z,45.80
2022-11-28T22:58:24.509Z,47.80
2022-11-28T22:59:24.629Z,48.10
2022-11-28T23:00:24.417Z,47.10
2022-11-28T23:01:24.455Z,49.70
2022-11-28T23:02:25.037Z,50.10
2022-11-28T23:03:24.462Z,44.30
2022-11-28T23:04:24.229Z,47.50
2022-11-28T23:05:24.187Z,46.90
2022-11-28T23:06:24.142Z,51.50
2022-11-28T23:07:24.146Z,52.90
2022-11-28T23:08:24.084Z,51.20
2022-11-28T23:09:24.005Z,47.90
2022-11-28T23:10:23.966Z,46.60
2022-11-28T23:11:23.919Z,49.00
2022-11-28T23:12:23.883Z,48.00
2022-11-28T23:13:23.831Z,48.60
2022-11-28T23:14:23.785Z,50.00
2022-11-28T23:15:23.730Z,48.70
2022-11-28T23:17:23.693Z,52.50
2022-11-28T23:18:23.617Z,52.40
2022-11-28T23:19:23.557Z,56.20
2022-11-28T23:20:23.503Z,54.10
2022-11-28T23:21:23.458Z,58.00
2022-11-28T23:22:23.412Z,53.30
2022-11-28T23:23:23.367Z,54.40
2022-11-28T23:24:23.321Z,50.70
2022-11-28T23:25:23.275Z,54.10
2022-11-28T23:26:23.229Z,54.80
2022-11-28T23:27:23.183Z,52.90
2022-11-28T23:28:23.137Z,57.40
2022-11-28T23:29:23.090Z,56.80
2022-11-28T23:30:23.044Z,53.80
2022-11-28T23:31:23.065Z,56.50
2022-11-28T23:32:22.949Z,50.80
2022-11-28T23:33:22.926Z,54.30
2022-11-28T23:34:22.859Z,58.30
2022-11-28T23:35:22.809Z,56.80
2022-11-28T23:36:22.761Z,52.70
